createdAt,value
2023-01-03T00:00:31.869Z,66.74
2023-01-03T00:05:57.397Z,67.08
2023-01-03T00:11:23.698Z,67.35
2023-01-03T00:16:46.116Z,67.75
2023-01-03T00:22:08.818Z,68.26
2023-01-03T00:27:32.764Z,68.76
2023-01-03T00:32:55.069Z,69.15
2023-01-03T00:38:17.291Z,69.21
2023-01-03T00:43:39.853Z,69.38
2023-01-03T00:49:02.301Z,69.77
2023-01-03T00:54:26.613Z,70.08
2023-01-03T00:59:49.019Z,70.44
2023-01-03T01:05:12.744Z,70.70
2023-01-03T01:10:36.254Z,71.04
2023-01-03T01:15:58.485Z,71.44
2023-01-03T01:21:27.947Z,71.86
2023-01-03T01:26:50.786Z,72.58
2023-01-03T01:32:13.537Z,73.07
2023-01-03T01:37:35.783Z,73.57
2023-01-03T01:43:16.527Z,74.23
2023-01-03T01:48:38.695Z,74.59
2023-01-03T01:54:02.604Z,75.01
2023-01-03T01:59:28.988Z,75.42
2023-01-03T02:04:55.286Z,75.82
2023-01-03T02:10:18.552Z,76.10
2023-01-03T02:16:07.816Z,76.79
2023-01-03T02:21:46.535Z,77.37
2023-01-03T02:27:16.511Z,78.22
2023-01-03T02:32:35.817Z,78.49
2023-01-03T02:38:05.784Z,79.14
2023-01-03T02:43:33.962Z,79.87
2023-01-03T02:49:06.300Z,79.86
2023-01-03T02:54:33.159Z,79.49
2023-01-03T03:00:10.175Z,79.52
2023-01-03T03:05:52.378Z,79.32
2023-01-03T03:11:32.608Z,79.51
2023-01-03T03:16:59.889Z,79.43
2023-01-03T03:23:18.364Z,79.45
2023-01-03T03:28:44.684Z,78.81
2023-01-03T03:34:14.467Z,78.45
2023-01-03T03:39:56.495Z,78.05
2023-01-03T03:45:26.332Z,77.87
2023-01-03T03:50:59.421Z,78.06
2023-01-03T03:56:31.195Z,78.46
2023-01-03T04:01:55.946Z,78.88
2023-01-03T04:07:19.150Z,79.39
2023-01-03T04:12:41.429Z,80.36
2023-01-03T04:18:03.948Z,81.71
2023-01-03T04:23:26.124Z,82.76
2023-01-03T04:28:48.567Z,83.54
2023-01-03T04:34:10.855Z,84.17
2023-01-03T04:39:33.056Z,84.71
2023-01-03T04:44:55.254Z,85.29
2023-01-03T04:50:17.771Z,85.51
2023-01-03T04:55:40.581Z,85.52
2023-01-03T05:01:09.061Z,85.53
2023-01-03T05:06:32.264Z,85.27
2023-01-03T05:11:55.151Z,84.32
2023-01-03T05:17:17.410Z,83.64
2023-01-03T05:22:57.677Z,83.02
2023-01-03T05:28:20.390Z,82.28
2023-01-03T05:33:44.944Z,81.10
2023-01-03T05:39:07.128Z,80.28
2023-01-03T05:44:29.449Z,79.38
2023-01-03T05:49:51.626Z,77.50
2023-01-03T05:55:14.069Z,76.39
2023-01-03T06:00:36.429Z,76.10
2023-01-03T06:05:58.635Z,76.62
2023-01-03T06:11:26.423Z,77.47
2023-01-03T06:17:06.781Z,78.21
2023-01-03T06:22:23.784Z,79.78
2023-01-03T06:27:46.091Z,81.33
2023-01-03T06:33:08.417Z,82.59
2023-01-03T06:38:30.616Z,83.14
2023-01-03T06:43:53.240Z,83.00
2023-01-03T06:49:40.630Z,83.00
2023-01-03T06:55:03.507Z,82.90
2023-01-03T07:00:26.806Z,82.88
2023-01-03T07:05:49.080Z,82.74
2023-01-03T07:11:11.487Z,82.55
2023-01-03T07:16:38.141Z,82.48
2023-01-03T07:22:00.328Z,82.54
2023-01-03T07:27:22.533Z,82.75
2023-01-03T07:32:44.951Z,83.21
2023-01-03T07:38:07.285Z,83.42
2023-01-03T07:43:39.791Z,83.45
2023-01-03T07:49:11.180Z,82.43
2023-01-03T07:54:29.690Z,80.81
2023-01-03T07:59:52.194Z,78.49
2023-01-03T08:05:14.650Z,76.78
2023-01-03T08:10:54.826Z,75.86
2023-01-03T08:16:18.633Z,75.28
2023-01-03T08:21:41.353Z,75.40
2023-01-03T08:27:05.416Z,75.68
2023-01-03T08:32:28.340Z,75.74
2023-01-03T08:37:51.175Z,75.88
2023-01-03T08:43:16.127Z,75.63
2023-01-03T08:48:40.355Z,75.16
2023-01-03T08:54:03.231Z,74.50
2023-01-03T08:59:25.735Z,73.98
2023-01-03T09:04:48.015Z,73.20
2023-01-03T09:10:10.369Z,72.94
2023-01-03T09:15:33.193Z,72.67
2023-01-03T09:20:57.276Z,72.17
2023-01-03T09:26:20.088Z,71.80
2023-01-03T09:31:42.528Z,71.50
2023-01-03T09:37:04.841Z,71.32
2023-01-03T09:42:48.616Z,70.80
2023-01-03T09:48:12.812Z,69.84
2023-01-03T09:54:02.616Z,69.44
2023-01-03T09:59:53.435Z,69.03
2023-01-03T10:05:21.667Z,68.31
2023-01-03T10:11:02.428Z,68.16
2023-01-03T10:16:48.608Z,68.17
2023-01-03T10:22:32.763Z,68.13
2023-01-03T10:27:59.647Z,68.22
2023-01-03T10:33:50.550Z,68.38
2023-01-03T10:39:24.003Z,69.10
2023-01-03T10:44:48.200Z,69.93
2023-01-03T10:50:14.665Z,70.16
2023-01-03T10:55:38.179Z,70.72
2023-01-03T11:01:01.202Z,69.11
2023-01-03T11:06:27.981Z,66.77
2023-01-03T11:12:00.714Z,66.75
2023-01-03T11:17:26.618Z,67.55
2023-01-03T11:23:08.078Z,68.52
2023-01-03T11:28:41.107Z,68.01
2023-01-03T11:40:23.893Z,67.28
2023-01-03T11:46:19.580Z,68.32
2023-01-03T11:51:55.466Z,67.88
2023-01-03T11:57:22.538Z,68.14
2023-01-03T12:03:23.186Z,68.14
2023-01-03T12:08:50.840Z,67.50
2023-01-03T12:14:26.991Z,66.86
2023-01-03T12:25:50.540Z,64.30
2023-01-03T12:31:38.012Z,62.79
2023-01-03T12:37:08.982Z,61.38
2023-01-03T12:42:39.309Z,60.65
2023-01-03T12:48:19.051Z,61.33
2023-01-03T12:54:25.667Z,60.25
2023-01-03T13:00:14.484Z,62.02
2023-01-03T13:05:56.093Z,62.64
2023-01-03T13:11:29.068Z,65.05
2023-01-03T13:16:57.861Z,67.02
2023-01-03T13:22:42.955Z,67.41
2023-01-03T13:28:30.786Z,68.23
2023-01-03T13:34:15.460Z,69.07
2023-01-03T13:45:39.850Z,69.03
2023-01-03T13:51:22.792Z,69.40
2023-01-03T13:56:59.124Z,69.73
2023-01-03T14:02:32.529Z,69.37
2023-01-03T14:08:21.867Z,69.22
2023-01-03T14:13:57.094Z,69.32
2023-01-03T14:19:41.301Z,69.07
2023-01-03T14:25:10.782Z,69.10
2023-01-03T14:30:44.362Z,69.02
2023-01-03T14:36:22.706Z,69.08
2023-01-03T14:41:56.163Z,69.35
2023-01-03T14:47:21.589Z,69.38
2023-01-03T14:52:47.624Z,69.64
2023-01-03T14:58:12.568Z,69.83
2023-01-03T15:03:38.385Z,70.09
2023-01-03T15:09:04.889Z,69.97
2023-01-03T15:14:30.715Z,69.88
2023-01-03T15:19:56.438Z,69.72
2023-01-03T15:25:35.164Z,69.45
2023-01-03T15:31:02.025Z,69.48
2023-01-03T15:36:26.538Z,69.40
2023-01-03T15:42:42.985Z,69.59
2023-01-03T15:47:36.948Z,69.58
2023-01-03T15:53:00.052Z,69.48
2023-01-03T15:58:23.005Z,69.59
2023-01-03T16:03:47.482Z,69.70
2023-01-03T16:09:10.285Z,69.79
2023-01-03T16:14:37.497Z,69.75
2023-01-03T16:19:59.950Z,69.65
2023-01-03T16:25:25.999Z,69.61
2023-01-03T16:30:49.082Z,69.54
2023-01-03T16:36:12.649Z,69.61
2023-01-03T16:41:35.055Z,69.61
2023-01-03T16:46:58.106Z,69.61
2023-01-03T16:52:22.734Z,69.76
2023-01-03T16:57:50.201Z,69.89
2023-01-03T17:03:09.107Z,69.85
2023-01-03T17:08:50.121Z,69.87
2023-01-03T17:14:16.389Z,69.75
2023-01-03T17:20:03.273Z,69.52
2023-01-03T17:25:04.985Z,69.45
2023-01-03T17:30:29.830Z,69.49
2023-01-03T17:35:53.351Z,69.58
2023-01-03T17:41:17.487Z,69.72
2023-01-03T17:46:58.962Z,69.81
2023-01-03T17:52:26.161Z,69.80
2023-01-03T17:57:48.807Z,69.89
2023-01-03T18:03:12.273Z,70.03
2023-01-03T18:08:37.569Z,70.12
2023-01-03T18:14:01.458Z,70.04
2023-01-03T18:19:24.184Z,70.12
2023-01-03T18:24:47.867Z,70.23
2023-01-03T18:30:10.523Z,70.43
2023-01-03T18:35:38.060Z,70.93
2023-01-03T18:41:04.805Z,71.37
2023-01-03T18:46:29.468Z,71.48
2023-01-03T18:51:52.519Z,71.67
2023-01-03T18:57:17.102Z,71.95
2023-01-03T19:02:42.067Z,72.29
2023-01-03T19:08:06.892Z,72.62
2023-01-03T19:13:54.684Z,72.72
2023-01-03T19:19:18.398Z,72.98
2023-01-03T19:24:47.042Z,73.15
2023-01-03T19:30:11.393Z,73.28
2023-01-03T19:35:34.645Z,73.61
2023-01-03T19:40:58.360Z,73.75
2023-01-03T19:46:23.131Z,74.09
2023-01-03T19:51:45.664Z,74.56
2023-01-03T19:57:10.698Z,74.89
2023-01-03T20:02:43.362Z,74.92
2023-01-03T20:08:11.763Z,75.16
2023-01-03T20:13:38.122Z,75.51
2023-01-03T20:19:00.455Z,75.71
2023-01-03T20:24:32.831Z,76.05
2023-01-03T20:29:56.124Z,76.62
2023-01-03T20:40:45.121Z,76.99
2023-01-03T20:46:10.230Z,77.18
2023-01-03T20:51:32.636Z,77.47
2023-01-03T20:56:54.996Z,77.80
2023-01-03T21:02:17.936Z,78.32
2023-01-03T21:08:00.935Z,78.79
2023-01-03T21:13:24.045Z,79.43
2023-01-03T21:18:46.302Z,80.34
2023-01-03T21:24:08.598Z,81.22
2023-01-03T21:29:31.343Z,82.15
2023-01-03T21:34:53.784Z,82.83
2023-01-03T21:40:26.060Z,83.33
2023-01-03T21:45:53.693Z,84.36
2023-01-03T21:51:28.638Z,85.79
2023-01-03T21:56:46.415Z,86.59
2023-01-03T22:02:27.119Z,87.88
2023-01-03T22:07:43.618Z,89.27
2023-01-03T22:13:09.775Z,90.44
2023-01-03T22:18:32.128Z,91.41
2023-01-03T22:23:55.212Z,92.79
2023-01-03T22:29:17.535Z,94.53
2023-01-03T22:34:39.792Z,96.02
2023-01-03T22:40:02.562Z,97.42
2023-01-03T22:45:25.735Z,98.47
2023-01-03T22:50:48.775Z,99.97
2023-01-03T22:56:11.855Z,100.00
2023-01-03T23:01:36.003Z,100.00
2023-01-03T23:06:59.611Z,100.00
2023-01-03T23:12:39.577Z,100.00
2023-01-03T23:18:01.812Z,100.00
2023-01-03T23:23:24.618Z,100.00
2023-01-03T23:28:46.928Z,100.00
2023-01-03T23:34:10.192Z,100.00
2023-01-03T23:39:34.364Z,100.00
2023-01-03T23:44:56.654Z,100.00
2023-01-03T23:50:19.014Z,100.00
2023-01-03T23:55:42.503Z,100.00
